sensor_id;sensor_type;location;lat;lon;timestamp;pressure;altitude;pressure_sealevel;temperature;humidity
54308;BME280;40208;39.778;2.710;2023-06-10T00:02:16;100907.31;;;22.26;100.00
54308;BME280;40208;39.778;2.710;2023-06-10T00:05:01;100978.22;;;22.69;100.00
54308;BME280;40208;39.778;2.710;2023-06-10T00:07:47;100802.13;;;21.65;100.00
54308;BME280;40208;39.778;2.710;2023-06-10T00:10:35;100786.78;;;21.55;100.00
54308;BME280;40208;39.778;2.710;2023-06-10T00:13:20;100880.09;;;22.08;100.00
54308;BME280;40208;39.778;2.710;2023-06-10T00:16:05;100966.53;;;22.49;100.00
54308;BME280;40208;39.778;2.710;2023-06-10T00:18:50;100871.81;;;21.80;100.00
54308;BME280;40208;39.778;2.710;2023-06-10T00:21:39;100842.06;;;21.71;100.00
54308;BME280;40208;39.778;2.710;2023-06-10T00:24:24;100755.13;;;21.17;100.00
54308;BME280;40208;39.778;2.710;2023-06-10T00:27:10;100798.78;;;21.32;100.00
54308;BME280;40208;39.778;2.710;2023-06-10T00:29:55;100762.19;;;21.08;100.00
54308;BME280;40208;39.778;2.710;2023-06-10T00:32:40;100801.47;;;21.32;100.00
54308;BME280;40208;39.778;2.710;2023-06-10T00:35:25;100859.84;;;21.64;100.00
54308;BME280;40208;39.778;2.710;2023-06-10T00:38:10;100650.69;;;20.48;100.00
54308;BME280;40208;39.778;2.710;2023-06-10T00:40:57;100788.25;;;21.29;100.00
54308;BME280;40208;39.778;2.710;2023-06-10T00:43:41;100803.44;;;21.30;100.00
54308;BME280;40208;39.778;2.710;2023-06-10T00:46:27;100824.75;;;21.33;100.00
54308;BME280;40208;39.778;2.710;2023-06-10T00:49:12;100861.53;;;21.45;100.00
54308;BME280;40208;39.778;2.710;2023-06-10T00:51:58;100907.91;;;21.70;100.00
54308;BME280;40208;39.778;2.710;2023-06-10T00:54:43;100707.66;;;20.33;100.00
54308;BME280;40208;39.778;2.710;2023-06-10T00:57:29;100823.59;;;21.16;100.00
54308;BME280;40208;39.778;2.710;2023-06-10T01:00:14;100841.53;;;21.27;100.00
54308;BME280;40208;39.778;2.710;2023-06-10T01:03:00;100713.22;;;20.42;100.00
54308;BME280;40208;39.778;2.710;2023-06-10T01:05:53;100829.25;;;21.13;100.00
54308;BME280;40208;39.778;2.710;2023-06-10T01:08:53;100902.22;;;21.63;100.00
54308;BME280;40208;39.778;2.710;2023-06-10T01:12:05;100730.38;;;20.62;100.00
54308;BME280;40208;39.778;2.710;2023-06-10T01:14:54;100883.13;;;21.45;100.00
54308;BME280;40208;39.778;2.710;2023-06-10T01:18:12;100936.22;;;21.75;100.00
54308;BME280;40208;39.778;2.710;2023-06-10T01:21:01;100822.56;;;21.07;100.00
54308;BME280;40208;39.778;2.710;2023-06-10T01:23:46;100783.25;;;20.74;100.00
54308;BME280;40208;39.778;2.710;2023-06-10T01:26:32;100933.06;;;21.70;100.00
54308;BME280;40208;39.778;2.710;2023-06-10T01:29:22;100952.41;;;21.66;100.00
54308;BME280;40208;39.778;2.710;2023-06-10T01:32:31;100890.09;;;21.17;100.00
54308;BME280;40208;39.778;2.710;2023-06-10T01:35:18;100946.66;;;21.49;100.00
54308;BME280;40208;39.778;2.710;2023-06-10T01:38:10;100620.38;;;19.52;100.00
54308;BME280;40208;39.778;2.710;2023-06-10T01:40:56;100816.53;;;20.63;100.00
54308;BME280;40208;39.778;2.710;2023-06-10T01:43:43;100934.31;;;21.35;100.00
54308;BME280;40208;39.778;2.710;2023-06-10T01:46:28;100857.25;;;20.81;100.00
54308;BME280;40208;39.778;2.710;2023-06-10T01:49:13;100699.41;;;19.83;100.00
54308;BME280;40208;39.778;2.710;2023-06-10T01:51:58;100858.69;;;20.64;100.00
54308;BME280;40208;39.778;2.710;2023-06-10T01:54:43;100763.06;;;19.84;100.00
54308;BME280;40208;39.778;2.710;2023-06-10T01:57:28;100829.25;;;20.19;100.00
54308;BME280;40208;39.778;2.710;2023-06-10T02:00:13;100806.00;;;20.18;100.00
54308;BME280;40208;39.778;2.710;2023-06-10T02:02:58;100857.03;;;20.52;100.00
54308;BME280;40208;39.778;2.710;2023-06-10T02:05:43;100866.09;;;20.51;100.00
54308;BME280;40208;39.778;2.710;2023-06-10T02:08:30;100840.66;;;20.44;100.00
54308;BME280;40208;39.778;2.710;2023-06-10T02:11:15;100843.03;;;20.37;100.00
54308;BME280;40208;39.778;2.710;2023-06-10T02:14:02;100629.72;;;19.16;100.00
54308;BME280;40208;39.778;2.710;2023-06-10T02:16:47;100833.69;;;20.41;100.00
54308;BME280;40208;39.778;2.710;2023-06-10T02:19:32;100818.81;;;20.26;100.00
54308;BME280;40208;39.778;2.710;2023-06-10T02:22:17;100782.94;;;20.04;100.00
54308;BME280;40208;39.778;2.710;2023-06-10T02:25:02;100897.44;;;20.63;100.00
54308;BME280;40208;39.778;2.710;2023-06-10T02:27:48;100875.16;;;20.50;100.00
54308;BME280;40208;39.778;2.710;2023-06-10T02:30:32;100831.72;;;20.22;100.00
54308;BME280;40208;39.778;2.710;2023-06-10T02:33:17;100808.69;;;19.97;100.00
54308;BME280;40208;39.778;2.710;2023-06-10T02:36:03;100749.09;;;19.58;100.00
54308;BME280;40208;39.778;2.710;2023-06-10T02:38:48;100807.38;;;19.91;100.00
54308;BME280;40208;39.778;2.710;2023-06-10T02:41:33;100703.38;;;19.36;100.00
54308;BME280;40208;39.778;2.710;2023-06-10T02:44:18;100832.75;;;20.10;100.00
54308;BME280;40208;39.778;2.710;2023-06-10T02:47:03;100924.81;;;20.80;100.00
54308;BME280;40208;39.778;2.710;2023-06-10T02:49:51;100840.53;;;20.24;100.00
54308;BME280;40208;39.778;2.710;2023-06-10T02:52:36;100885.94;;;20.50;100.00
54308;BME280;40208;39.778;2.710;2023-06-10T02:55:22;100847.84;;;20.33;100.00
54308;BME280;40208;39.778;2.710;2023-06-10T02:58:10;100577.56;;;18.63;100.00
54308;BME280;40208;39.778;2.710;2023-06-10T03:00:55;100893.19;;;20.49;100.00
54308;BME280;40208;39.778;2.710;2023-06-10T03:03:41;100785.50;;;19.74;100.00
54308;BME280;40208;39.778;2.710;2023-06-10T03:06:27;100783.66;;;19.74;100.00
54308;BME280;40208;39.778;2.710;2023-06-10T03:09:13;100880.41;;;20.30;100.00
54308;BME280;40208;39.778;2.710;2023-06-10T03:11:58;100711.09;;;19.29;100.00
54308;BME280;40208;39.778;2.710;2023-06-10T03:14:43;100822.16;;;19.97;100.00
54308;BME280;40208;39.778;2.710;2023-06-10T03:17:28;100773.97;;;19.51;100.00
54308;BME280;40208;39.778;2.710;2023-06-10T03:20:13;100793.34;;;19.77;100.00
54308;BME280;40208;39.778;2.710;2023-06-10T03:23:00;100858.91;;;20.19;100.00
54308;BME280;40208;39.778;2.710;2023-06-10T03:25:45;100804.44;;;19.83;100.00
54308;BME280;40208;39.778;2.710;2023-06-10T03:28:30;100788.94;;;19.76;100.00
54308;BME280;40208;39.778;2.710;2023-06-10T03:31:15;100918.84;;;20.44;100.00
54308;BME280;40208;39.778;2.710;2023-06-10T03:34:01;100749.13;;;19.36;100.00
54308;BME280;40208;39.778;2.710;2023-06-10T03:36:46;100648.66;;;18.82;100.00
54308;BME280;40208;39.778;2.710;2023-06-10T03:39:32;100790.31;;;19.70;100.00
54308;BME280;40208;39.778;2.710;2023-06-10T03:42:17;100926.47;;;20.39;100.00
54308;BME280;40208;39.778;2.710;2023-06-10T03:45:03;100722.78;;;19.18;100.00
54308;BME280;40208;39.778;2.710;2023-06-10T03:47:50;100804.97;;;19.77;100.00
54308;BME280;40208;39.778;2.710;2023-06-10T03:50:35;100823.06;;;19.86;100.00
54308;BME280;40208;39.778;2.710;2023-06-10T03:53:20;100499.16;;;17.92;100.00
54308;BME280;40208;39.778;2.710;2023-06-10T03:56:05;100833.91;;;19.96;100.00
54308;BME280;40208;39.778;2.710;2023-06-10T03:58:50;100730.84;;;19.18;100.00
54308;BME280;40208;39.778;2.710;2023-06-10T04:01:37;100577.38;;;18.10;100.00
54308;BME280;40208;39.778;2.710;2023-06-10T04:04:25;100726.56;;;19.16;100.00
54308;BME280;40208;39.778;2.710;2023-06-10T04:07:10;100799.66;;;19.43;100.00
54308;BME280;40208;39.778;2.710;2023-06-10T04:09:55;100900.00;;;20.00;100.00
54308;BME280;40208;39.778;2.710;2023-06-10T04:12:41;100916.03;;;20.13;100.00
54308;BME280;40208;39.778;2.710;2023-06-10T04:15:26;100796.44;;;19.49;100.00
54308;BME280;40208;39.778;2.710;2023-06-10T04:18:11;100908.25;;;19.99;100.00
54308;BME280;40208;39.778;2.710;2023-06-10T04:20:55;100817.53;;;19.44;100.00
54308;BME280;40208;39.778;2.710;2023-06-10T04:23:41;100720.38;;;18.93;100.00
54308;BME280;40208;39.778;2.710;2023-06-10T04:26:27;100779.19;;;19.09;100.00
54308;BME280;40208;39.778;2.710;2023-06-10T04:29:12;100846.88;;;19.47;100.00
54308;BME280;40208;39.778;2.710;2023-06-10T04:31:57;100810.72;;;19.18;100.00
54308;BME280;40208;39.778;2.710;2023-06-10T04:34:42;100719.81;;;18.78;100.00
54308;BME280;40208;39.778;2.710;2023-06-10T04:37:29;100866.44;;;19.61;100.00
54308;BME280;40208;39.778;2.710;2023-06-10T04:40:14;100910.38;;;19.84;100.00
54308;BME280;40208;39.778;2.710;2023-06-10T04:43:00;100837.22;;;19.34;100.00
54308;BME280;40208;39.778;2.710;2023-06-10T04:45:45;100715.00;;;18.36;100.00
54308;BME280;40208;39.778;2.710;2023-06-10T04:48:30;100785.28;;;18.65;100.00
54308;BME280;40208;39.778;2.710;2023-06-10T04:51:14;100804.84;;;18.79;100.00
54308;BME280;40208;39.778;2.710;2023-06-10T04:53:59;100726.34;;;18.29;100.00
54308;BME280;40208;39.778;2.710;2023-06-10T04:56:48;100648.13;;;17.75;100.00
54308;BME280;40208;39.778;2.710;2023-06-10T04:59:33;100719.25;;;18.16;100.00
54308;BME280;40208;39.778;2.710;2023-06-10T05:02:17;100718.50;;;18.14;100.00
54308;BME280;40208;39.778;2.710;2023-06-10T05:05:03;100920.41;;;19.25;100.00
54308;BME280;40208;39.778;2.710;2023-06-10T05:07:48;100854.00;;;18.81;100.00
54308;BME280;40208;39.778;2.710;2023-06-10T05:10:34;100779.34;;;18.27;100.00
54308;BME280;40208;39.778;2.710;2023-06-10T05:13:22;100572.63;;;16.98;100.00
54308;BME280;40208;39.778;2.710;2023-06-10T05:16:07;100731.03;;;17.91;100.00
54308;BME280;40208;39.778;2.710;2023-06-10T05:18:52;100643.63;;;17.41;100.00
54308;BME280;40208;39.778;2.710;2023-06-10T05:21:37;100677.53;;;17.42;100.00
54308;BME280;40208;39.778;2.710;2023-06-10T05:24:22;100888.22;;;18.90;100.00
54308;BME280;40208;39.778;2.710;2023-06-10T05:27:07;100792.81;;;18.38;100.00
54308;BME280;40208;39.778;2.710;2023-06-10T05:29:53;100517.03;;;16.65;100.00
54308;BME280;40208;39.778;2.710;2023-06-10T05:32:38;100847.19;;;18.53;100.00
54308;BME280;40208;39.778;2.710;2023-06-10T05:35:23;100670.34;;;17.53;100.00
54308;BME280;40208;39.778;2.710;2023-06-10T05:38:10;100680.94;;;17.68;100.00
54308;BME280;40208;39.778;2.710;2023-06-10T05:40:55;100722.50;;;17.97;100.00
54308;BME280;40208;39.778;2.710;2023-06-10T05:43:41;100736.81;;;18.09;100.00
54308;BME280;40208;39.778;2.710;2023-06-10T05:46:27;100702.94;;;17.84;100.00
54308;BME280;40208;39.778;2.710;2023-06-10T05:49:11;100889.47;;;19.09;100.00
54308;BME280;40208;39.778;2.710;2023-06-10T05:51:56;100794.06;;;18.56;100.00
54308;BME280;40208;39.778;2.710;2023-06-10T05:54:43;100892.06;;;19.10;100.00
54308;BME280;40208;39.778;2.710;2023-06-10T05:57:28;100681.13;;;17.65;100.00
54308;BME280;40208;39.778;2.710;2023-06-10T06:00:13;100612.94;;;17.56;100.00
54308;BME280;40208;39.778;2.710;2023-06-10T06:02:58;100842.78;;;18.98;100.00
54308;BME280;40208;39.778;2.710;2023-06-10T06:05:44;100785.75;;;18.71;100.00
54308;BME280;40208;39.778;2.710;2023-06-10T06:08:30;100753.25;;;18.62;100.00
54308;BME280;40208;39.778;2.710;2023-06-10T06:11:15;100763.03;;;18.63;100.00
54308;BME280;40208;39.778;2.710;2023-06-10T06:14:00;100692.16;;;18.31;100.00
54308;BME280;40208;39.778;2.710;2023-06-10T06:16:45;100837.38;;;19.32;100.00
54308;BME280;40208;39.778;2.710;2023-06-10T06:19:30;100872.31;;;19.55;100.00
54308;BME280;40208;39.778;2.710;2023-06-10T06:22:15;100831.00;;;19.33;100.00
54308;BME280;40208;39.778;2.710;2023-06-10T06:25:04;100694.97;;;18.63;100.00
54308;BME280;40208;39.778;2.710;2023-06-10T06:27:50;100884.78;;;19.78;100.00
54308;BME280;40208;39.778;2.710;2023-06-10T06:30:35;100906.88;;;20.04;100.00
54308;BME280;40208;39.778;2.710;2023-06-10T06:33:20;100909.19;;;20.09;100.00
54308;BME280;40208;39.778;2.710;2023-06-10T06:36:07;100825.19;;;19.72;100.00
54308;BME280;40208;39.778;2.710;2023-06-10T06:38:52;100638.53;;;18.63;100.00
54308;BME280;40208;39.778;2.710;2023-06-10T06:41:37;100819.91;;;19.81;100.00
54308;BME280;40208;39.778;2.710;2023-06-10T06:44:21;100815.94;;;19.85;100.00
54308;BME280;40208;39.778;2.710;2023-06-10T06:47:07;100910.94;;;20.52;100.00
54308;BME280;40208;39.778;2.710;2023-06-10T06:49:51;100936.13;;;20.73;100.00
54308;BME280;40208;39.778;2.710;2023-06-10T06:52:36;100824.41;;;20.13;100.00
54308;BME280;40208;39.778;2.710;2023-06-10T06:55:21;100697.03;;;19.37;100.00
54308;BME280;40208;39.778;2.710;2023-06-10T06:58:07;100827.56;;;20.18;100.00
54308;BME280;40208;39.778;2.710;2023-06-10T07:00:51;100912.56;;;20.75;100.00
54308;BME280;40208;39.778;2.710;2023-06-10T07:03:37;100841.00;;;20.50;100.00
54308;BME280;40208;39.778;2.710;2023-06-10T07:06:22;100900.47;;;20.70;100.00
54308;BME280;40208;39.778;2.710;2023-06-10T07:09:07;100845.03;;;20.56;100.00
54308;BME280;40208;39.778;2.710;2023-06-10T07:11:56;100870.53;;;20.73;100.00
54308;BME280;40208;39.778;2.710;2023-06-10T07:14:41;100820.00;;;20.54;100.00
54308;BME280;40208;39.778;2.710;2023-06-10T07:17:26;100808.97;;;20.57;100.00
54308;BME280;40208;39.778;2.710;2023-06-10T07:20:11;100862.88;;;20.99;100.00
54308;BME280;40208;39.778;2.710;2023-06-10T07:22:56;100919.94;;;21.25;100.00
54308;BME280;40208;39.778;2.710;2023-06-10T07:25:41;100832.00;;;20.92;100.00
54308;BME280;40208;39.778;2.710;2023-06-10T07:28:26;100941.06;;;21.72;100.00
54308;BME280;40208;39.778;2.710;2023-06-10T07:31:11;100865.94;;;21.25;100.00
54308;BME280;40208;39.778;2.710;2023-06-10T07:33:56;100842.97;;;21.31;100.00
54308;BME280;40208;39.778;2.710;2023-06-10T07:36:41;100789.72;;;21.02;100.00
54308;BME280;40208;39.778;2.710;2023-06-10T07:39:26;100741.38;;;20.80;100.00
54308;BME280;40208;39.778;2.710;2023-06-10T07:42:11;100936.84;;;22.08;100.00
54308;BME280;40208;39.778;2.710;2023-06-10T07:44:56;100872.50;;;21.73;100.00
54308;BME280;40208;39.778;2.710;2023-06-10T07:47:42;100834.38;;;21.56;100.00
54308;BME280;40208;39.778;2.710;2023-06-10T07:50:27;100898.28;;;22.06;100.00
54308;BME280;40208;39.778;2.710;2023-06-10T07:53:12;100884.78;;;22.06;100.00
54308;BME280;40208;39.778;2.710;2023-06-10T07:55:57;100907.84;;;22.20;100.00
54308;BME280;40208;39.778;2.710;2023-06-10T07:58:42;100821.47;;;21.79;100.00
54308;BME280;40208;39.778;2.710;2023-06-10T08:01:27;100955.25;;;22.63;100.00
54308;BME280;40208;39.778;2.710;2023-06-10T08:04:12;100914.16;;;22.50;100.00
54308;BME280;40208;39.778;2.710;2023-06-10T08:06:57;100815.66;;;21.94;100.00
54308;BME280;40208;39.778;2.710;2023-06-10T08:09:41;100854.50;;;22.12;100.00
54308;BME280;40208;39.778;2.710;2023-06-10T08:12:26;100882.41;;;22.32;100.00
54308;BME280;40208;39.778;2.710;2023-06-10T08:15:11;100873.56;;;22.20;100.00
54308;BME280;40208;39.778;2.710;2023-06-10T08:17:56;100801.84;;;21.87;100.00
54308;BME280;40208;39.778;2.710;2023-06-10T08:20:41;100937.59;;;22.59;100.00
54308;BME280;40208;39.778;2.710;2023-06-10T08:23:26;100816.50;;;21.94;100.00
54308;BME280;40208;39.778;2.710;2023-06-10T08:26:11;100955.38;;;22.91;100.00
54308;BME280;40208;39.778;2.710;2023-06-10T08:28:56;100938.59;;;22.77;100.00
54308;BME280;40208;39.778;2.710;2023-06-10T08:31:43;100937.75;;;22.77;100.00
54308;BME280;40208;39.778;2.710;2023-06-10T08:34:33;100848.09;;;22.23;100.00
54308;BME280;40208;39.778;2.710;2023-06-10T08:37:20;100845.13;;;22.26;100.00
54308;BME280;40208;39.778;2.710;2023-06-10T08:40:05;100854.38;;;22.43;100.00
54308;BME280;40208;39.778;2.710;2023-06-10T08:42:57;100978.28;;;23.25;100.00
54308;BME280;40208;39.778;2.710;2023-06-10T08:45:48;100760.88;;;22.01;100.00
54308;BME280;40208;39.778;2.710;2023-06-10T08:48:35;100928.47;;;22.99;100.00
54308;BME280;40208;39.778;2.710;2023-06-10T08:51:27;100893.16;;;22.81;100.00
54308;BME280;40208;39.778;2.710;2023-06-10T08:54:17;100816.63;;;22.41;100.00
54308;BME280;40208;39.778;2.710;2023-06-10T08:57:06;100944.09;;;23.15;100.00
54308;BME280;40208;39.778;2.710;2023-06-10T08:59:55;100933.41;;;23.13;100.00
54308;BME280;40208;39.778;2.710;2023-06-10T09:02:40;100877.47;;;22.84;100.00
54308;BME280;40208;39.778;2.710;2023-06-10T09:05:26;100986.78;;;23.40;100.00
54308;BME280;40208;39.778;2.710;2023-06-10T09:08:12;101029.19;;;23.69;100.00
54308;BME280;40208;39.778;2.710;2023-06-10T09:10:59;100847.66;;;22.57;100.00
54308;BME280;40208;39.778;2.710;2023-06-10T09:13:44;100880.78;;;22.78;100.00
54308;BME280;40208;39.778;2.710;2023-06-10T09:16:30;101030.63;;;23.63;100.00
54308;BME280;40208;39.778;2.710;2023-06-10T09:19:16;101029.03;;;23.61;100.00
54308;BME280;40208;39.778;2.710;2023-06-10T09:22:01;100918.22;;;22.83;100.00
54308;BME280;40208;39.778;2.710;2023-06-10T09:24:46;100839.69;;;22.46;100.00
54308;BME280;40208;39.778;2.710;2023-06-10T09:27:32;101038.31;;;23.58;100.00
54308;BME280;40208;39.778;2.710;2023-06-10T09:30:28;100747.81;;;21.87;100.00
54308;BME280;40208;39.778;2.710;2023-06-10T09:33:14;100868.25;;;22.68;100.00
54308;BME280;40208;39.778;2.710;2023-06-10T09:36:01;100876.66;;;22.74;100.00
54308;BME280;40208;39.778;2.710;2023-06-10T09:38:49;100979.25;;;23.34;100.00
54308;BME280;40208;39.778;2.710;2023-06-10T09:41:39;101035.75;;;23.66;100.00
54308;BME280;40208;39.778;2.710;2023-06-10T09:44:23;100924.34;;;23.04;100.00
54308;BME280;40208;39.778;2.710;2023-06-10T09:47:20;100971.69;;;23.38;100.00
54308;BME280;40208;39.778;2.710;2023-06-10T09:50:05;100865.66;;;22.85;100.00
54308;BME280;40208;39.778;2.710;2023-06-10T09:52:50;101049.28;;;24.13;100.00
54308;BME280;40208;39.778;2.710;2023-06-10T09:55:39;100968.25;;;23.73;100.00
54308;BME280;40208;39.778;2.710;2023-06-10T09:58:38;101064.41;;;24.34;100.00
54308;BME280;40208;39.778;2.710;2023-06-10T10:01:23;100808.91;;;23.03;100.00
54308;BME280;40208;39.778;2.710;2023-06-10T10:04:08;100920.84;;;23.59;100.00
54308;BME280;40208;39.778;2.710;2023-06-10T10:06:53;100846.00;;;23.31;100.00
54308;BME280;40208;39.778;2.710;2023-06-10T10:09:40;101055.25;;;24.63;100.00
54308;BME280;40208;39.778;2.710;2023-06-10T10:12:25;100897.56;;;23.66;100.00
54308;BME280;40208;39.778;2.710;2023-06-10T10:15:11;100938.72;;;23.80;100.00
54308;BME280;40208;39.778;2.710;2023-06-10T10:18:09;100959.47;;;24.17;100.00
54308;BME280;40208;39.778;2.710;2023-06-10T10:20:54;100939.69;;;24.06;100.00
54308;BME280;40208;39.778;2.710;2023-06-10T10:23:52;101006.13;;;24.38;100.00
54308;BME280;40208;39.778;2.710;2023-06-10T10:26:38;100975.34;;;24.29;100.00
54308;BME280;40208;39.778;2.710;2023-06-10T10:29:33;101085.75;;;24.92;100.00
54308;BME280;40208;39.778;2.710;2023-06-10T10:35:29;101007.88;;;24.57;100.00
54308;BME280;40208;39.778;2.710;2023-06-10T10:38:15;100868.28;;;23.70;100.00
54308;BME280;40208;39.778;2.710;2023-06-10T10:41:00;100670.91;;;22.38;100.00
54308;BME280;40208;39.778;2.710;2023-06-10T10:43:46;100779.84;;;22.96;100.00
54308;BME280;40208;39.778;2.710;2023-06-10T10:46:44;100776.50;;;22.84;100.00
54308;BME280;40208;39.778;2.710;2023-06-10T10:49:30;100801.91;;;23.11;100.00
54308;BME280;40208;39.778;2.710;2023-06-10T10:52:16;100877.72;;;23.38;100.00
54308;BME280;40208;39.778;2.710;2023-06-10T10:55:01;100930.44;;;23.81;100.00
54308;BME280;40208;39.778;2.710;2023-06-10T10:57:58;100994.41;;;24.20;100.00
54308;BME280;40208;39.778;2.710;2023-06-10T11:00:44;100759.91;;;22.69;100.00
54308;BME280;40208;39.778;2.710;2023-06-10T11:03:29;100973.22;;;23.87;100.00
54308;BME280;40208;39.778;2.710;2023-06-10T11:06:17;100964.91;;;23.89;100.00
54308;BME280;40208;39.778;2.710;2023-06-10T11:09:26;101033.59;;;24.35;100.00
54308;BME280;40208;39.778;2.710;2023-06-10T11:12:22;100726.09;;;22.46;100.00
54308;BME280;40208;39.778;2.710;2023-06-10T11:15:08;100898.59;;;23.56;100.00
54308;BME280;40208;39.778;2.710;2023-06-10T11:18:10;100718.16;;;22.34;100.00
54308;BME280;40208;39.778;2.710;2023-06-10T11:20:59;101086.44;;;24.76;100.00
54308;BME280;40208;39.778;2.710;2023-06-10T11:23:45;100847.88;;;23.20;100.00
54308;BME280;40208;39.778;2.710;2023-06-10T11:26:34;100824.53;;;23.19;100.00
54308;BME280;40208;39.778;2.710;2023-06-10T11:29:19;100848.38;;;23.34;100.00
54308;BME280;40208;39.778;2.710;2023-06-10T11:32:06;100662.75;;;22.48;100.00
54308;BME280;40208;39.778;2.710;2023-06-10T11:34:52;100865.34;;;23.63;100.00
54308;BME280;40208;39.778;2.710;2023-06-10T11:37:37;100633.66;;;22.22;100.00
54308;BME280;40208;39.778;2.710;2023-06-10T11:40:23;100906.47;;;24.04;100.00
54308;BME280;40208;39.778;2.710;2023-06-10T11:43:08;100688.22;;;22.83;100.00
54308;BME280;40208;39.778;2.710;2023-06-10T11:45:54;100687.75;;;22.88;100.00
54308;BME280;40208;39.778;2.710;2023-06-10T11:48:54;100759.78;;;23.44;100.00
54308;BME280;40208;39.778;2.710;2023-06-10T11:51:41;100741.69;;;23.44;100.00
54308;BME280;40208;39.778;2.710;2023-06-10T11:54:33;101058.72;;;25.53;100.00
54308;BME280;40208;39.778;2.710;2023-06-10T11:57:18;100675.75;;;23.36;100.00
54308;BME280;40208;39.778;2.710;2023-06-10T12:00:09;100733.66;;;23.70;100.00
54308;BME280;40208;39.778;2.710;2023-06-10T12:02:56;100686.97;;;23.41;100.00
54308;BME280;40208;39.778;2.710;2023-06-10T12:08:43;100805.22;;;24.40;100.00
54308;BME280;40208;39.778;2.710;2023-06-10T12:11:28;100780.84;;;24.22;100.00
54308;BME280;40208;39.778;2.710;2023-06-10T12:14:13;100836.06;;;24.57;100.00
54308;BME280;40208;39.778;2.710;2023-06-10T12:16:58;100621.25;;;23.57;100.00
54308;BME280;40208;39.778;2.710;2023-06-10T12:19:44;100740.59;;;24.35;100.00
54308;BME280;40208;39.778;2.710;2023-06-10T12:22:42;100633.47;;;23.79;100.00
54308;BME280;40208;39.778;2.710;2023-06-10T12:25:30;100689.38;;;24.06;100.00
54308;BME280;40208;39.778;2.710;2023-06-10T12:28:16;100821.94;;;24.79;100.00
54308;BME280;40208;39.778;2.710;2023-06-10T12:31:07;100678.84;;;24.03;100.00
54308;BME280;40208;39.778;2.710;2023-06-10T12:34:08;100880.09;;;25.21;100.00
54308;BME280;40208;39.778;2.710;2023-06-10T12:36:55;100859.09;;;25.05;100.00
54308;BME280;40208;39.778;2.710;2023-06-10T12:39:41;100795.88;;;24.60;100.00
54308;BME280;40208;39.778;2.710;2023-06-10T12:42:27;100755.03;;;24.44;100.00
54308;BME280;40208;39.778;2.710;2023-06-10T12:45:12;100838.31;;;24.87;100.00
54308;BME280;40208;39.778;2.710;2023-06-10T12:48:23;100777.06;;;24.59;100.00
54308;BME280;40208;39.778;2.710;2023-06-10T12:51:08;100687.00;;;24.03;100.00
54308;BME280;40208;39.778;2.710;2023-06-10T12:53:55;100798.94;;;24.91;100.00
54308;BME280;40208;39.778;2.710;2023-06-10T12:56:40;100623.53;;;23.87;100.00
54308;BME280;40208;39.778;2.710;2023-06-10T12:59:26;100741.72;;;24.50;100.00
54308;BME280;40208;39.778;2.710;2023-06-10T13:02:11;101060.31;;;26.24;100.00
54308;BME280;40208;39.778;2.710;2023-06-10T13:04:57;101038.19;;;26.19;100.00
54308;BME280;40208;39.778;2.710;2023-06-10T13:07:44;101037.69;;;26.23;100.00
54308;BME280;40208;39.778;2.710;2023-06-10T13:10:29;100748.78;;;24.43;100.00
54308;BME280;40208;39.778;2.710;2023-06-10T13:13:15;100631.59;;;23.79;100.00
54308;BME280;40208;39.778;2.710;2023-06-10T13:16:02;100769.63;;;24.61;100.00
54308;BME280;40208;39.778;2.710;2023-06-10T13:18:47;100677.75;;;24.13;100.00
54308;BME280;40208;39.778;2.710;2023-06-10T13:21:33;100610.09;;;23.78;100.00
54308;BME280;40208;39.778;2.710;2023-06-10T13:24:18;100657.72;;;24.06;100.00
54308;BME280;40208;39.778;2.710;2023-06-10T13:27:07;100589.06;;;23.80;100.00
54308;BME280;40208;39.778;2.710;2023-06-10T13:29:54;100701.81;;;24.43;100.00
54308;BME280;40208;39.778;2.710;2023-06-10T13:32:39;100887.50;;;25.53;100.00
54308;BME280;40208;39.778;2.710;2023-06-10T13:35:24;100737.78;;;24.71;100.00
54308;BME280;40208;39.778;2.710;2023-06-10T13:38:09;100781.56;;;24.76;100.00
54308;BME280;40208;39.778;2.710;2023-06-10T13:40:54;100854.00;;;25.36;100.00
54308;BME280;40208;39.778;2.710;2023-06-10T13:43:39;100630.88;;;23.95;100.00
54308;BME280;40208;39.778;2.710;2023-06-10T13:46:24;100764.94;;;24.79;100.00
54308;BME280;40208;39.778;2.710;2023-06-10T13:49:13;100762.91;;;24.73;100.00
54308;BME280;40208;39.778;2.710;2023-06-10T13:52:00;100753.84;;;24.64;100.00
54308;BME280;40208;39.778;2.710;2023-06-10T13:54:49;100599.88;;;23.98;100.00
54308;BME280;40208;39.778;2.710;2023-06-10T13:57:34;100576.75;;;23.85;100.00
54308;BME280;40208;39.778;2.710;2023-06-10T14:00:19;100734.88;;;24.72;100.00
54308;BME280;40208;39.778;2.710;2023-06-10T14:03:04;100577.50;;;23.96;100.00
54308;BME280;40208;39.778;2.710;2023-06-10T14:05:52;100794.13;;;25.11;100.00
54308;BME280;40208;39.778;2.710;2023-06-10T14:08:44;100732.09;;;24.90;100.00
54308;BME280;40208;39.778;2.710;2023-06-10T14:11:30;100903.66;;;25.97;100.00
54308;BME280;40208;39.778;2.710;2023-06-10T14:14:19;100961.88;;;26.45;100.00
54308;BME280;40208;39.778;2.710;2023-06-10T14:17:07;100567.81;;;23.93;100.00
54308;BME280;40208;39.778;2.710;2023-06-10T14:20:00;100724.97;;;24.97;100.00
54308;BME280;40208;39.778;2.710;2023-06-10T14:22:48;100766.91;;;25.37;100.00
54308;BME280;40208;39.778;2.710;2023-06-10T14:26:14;100705.63;;;25.01;100.00
54308;BME280;40208;39.778;2.710;2023-06-10T14:29:05;100598.69;;;24.34;100.00